Bookmark and Share
Track history (hours):
 

Rhodanus

Last reported at 2014-Apr-17 21:28 UTC. Time now 2014-Apr-21 07:39 UTC.
Position N 37°33' W 000°35'.

Length 89 m; draft 3.2 m.

Type: Cargo ship. MMSI: 245848000.

NotesDate/timePositionNaut miles runAvg speedWind from/ knotsBaromVisibWave heightAir tempDewpointWater temp
2014-Apr-17 21:28N 37°33' W 000°35'9 9.2
2014-Apr-17 20:29N 37°42' W 000°31'  
2014-Apr-14 16:32N 39°46' E 000°50'18 9.1
2014-Apr-14 14:34N 40°04' E 000°55'9 8.7
2014-Apr-14 13:33N 40°12' E 000°58'18 8.9
2014-Apr-14 11:33N 40°30' E 001°03'9 9.0
2014-Apr-14 10:31N 40°39' E 001°05'9 9.0
2014-Apr-14 09:34N 40°47' E 001°08'10 9.2
2014-Apr-14 08:31N 40°57' E 001°10'9 0.3
2014-Apr-12 21:18N 41°05' E 001°15'2 0.1
2014-Apr-11 13:24N 41°05' E 001°18'1910.1
2014-Apr-11 11:33N 41°08' E 001°43'1010.0
2014-Apr-11 10:33N 41°11' E 001°56'15 2.9
2014-Apr-11 05:22N 41°21' E 002°10'0 0.0
2014-Apr-11 00:27N 41°21' E 002°10'0 0.0
2014-Apr-10 21:19N 41°21' E 002°10'0 0.0
2014-Apr-10 20:33N 41°21' E 002°10'0 0.0
2014-Apr-10 19:33N 41°21' E 002°10'0 0.1
2014-Apr-10 18:32N 41°21' E 002°10'6 5.7
2014-Apr-10 17:33N 41°19' E 002°17'4 4.0
2014-Apr-10 16:33N 41°21' E 002°22'9 8.5
2014-Apr-10 15:29N 41°26' E 002°32'910.2
2014-Apr-10 14:33N 41°32' E 002°43'2110.4
2014-Apr-10 12:33N 41°43' E 003°06'1110.4
2014-Apr-10 11:31N 41°49' E 003°18'1211.2
2014-Apr-10 10:29N 41°58' E 003°28'1011.2
2014-Apr-10 09:33N 42°06' E 003°37'2411.8
2014-Apr-10 07:30N 42°25' E 003°57'1111.8
2014-Apr-10 06:33N 42°34' E 004°06'1111.3
2014-Apr-10 05:33N 42°43' E 004°16'1110.4
2014-Apr-10 04:31N 42°51' E 004°25'2210.9
2014-Apr-10 02:30N 43°08' E 004°45'1111.0
2014-Apr-10 01:32N 43°16' E 004°54'8 7.8
2014-Apr-10 00:33N 43°24' E 004°55'4 4.5
2014-Apr-09 23:33N 43°23' E 004°49'8 8.0
2014-Apr-09 22:33N 43°30' E 004°44'8 0.2
2014-Apr-08 07:24N 43°23' E 004°48'1 1.4
2014-Apr-08 06:34N 43°23' E 004°50'6 6.2
2014-Apr-08 05:33N 43°22' E 004°58'4 4.3
2014-Apr-08 04:34N 43°18' E 004°60'6 4.6
2014-Apr-08 03:15N 43°12' E 005°02'56 9.8
2014-Apr-07 21:33N 42°27' E 004°16'  

Dump ship's entire track history

sailing weather and tide predictions

Rhodanus — PGBC — position and weather